Time;durP1;ratioP1;P1;durP2;ratioP2;P2;SDS_P1;SDS_P2;PMS_P1;PMS_P2;Temp;Humidity;BMP_temperature;BMP_pressure;BME280_temperature;BME280_humidity;BME280_pressure;Samples;Min_cycle;Max_cycle;Signal;HPM_P1;HPM_P2
2023/08/23 00:01:56;;;;;;;1.85;1.00;;;26.20;50.00;;;;;;5062849;28;20319;-62
2023/08/23 00:04:23;;;;;;;1.67;0.77;;;26.20;50.00;;;;;;5039903;28;20028;-64
2023/08/23 00:06:48;;;;;;;0.70;0.68;;;26.20;50.00;;;;;;5050437;28;20155;-62
2023/08/23 00:09:16;;;;;;;1.17;0.75;;;26.20;50.00;;;;;;5045732;28;20119;-65
2023/08/23 00:11:43;;;;;;;1.70;0.88;;;26.10;50.00;;;;;;5063707;28;20058;-62
2023/08/23 00:14:09;;;;;;;2.22;0.88;;;26.20;50.10;;;;;;5063737;28;20041;-62
2023/08/23 00:16:35;;;;;;;2.83;0.70;;;26.10;50.00;;;;;;5059071;28;20111;-62
2023/08/23 00:19:01;;;;;;;1.10;0.70;;;26.20;50.10;;;;;;5066562;28;20041;-63
2023/08/23 00:21:30;;;;;;;1.02;0.70;;;26.10;50.00;;;;;;5058444;28;20058;-62
2023/08/23 00:23:56;;;;;;;1.23;0.68;;;26.10;50.00;;;;;;5062774;28;20339;-64
2023/08/23 00:26:22;;;;;;;1.38;0.80;;;26.10;50.00;;;;;;5046495;28;20102;-64
2023/08/23 00:28:48;;;;;;;2.05;0.80;;;26.00;50.00;;;;;;5047013;28;20086;-63
2023/08/23 00:31:15;;;;;;;1.55;0.70;;;26.10;50.00;;;;;;5043285;28;20107;-62
2023/08/23 00:33:41;;;;;;;2.05;1.05;;;26.10;50.00;;;;;;5068566;28;20135;-64
2023/08/23 00:36:07;;;;;;;0.75;0.60;;;26.10;50.00;;;;;;5062123;28;20395;-65
2023/08/23 00:38:33;;;;;;;1.42;0.52;;;26.10;50.00;;;;;;5044123;28;20024;-64
2023/08/23 00:40:59;;;;;;;1.38;0.68;;;26.00;50.00;;;;;;5062195;28;20108;-64
2023/08/23 00:43:25;;;;;;;0.98;0.50;;;26.00;50.60;;;;;;5046481;28;20028;-62
2023/08/23 00:45:52;;;;;;;0.98;0.60;;;26.00;50.60;;;;;;5063264;28;20161;-64
2023/08/23 00:48:18;;;;;;;1.48;0.65;;;26.00;50.00;;;;;;5057910;28;20040;-63
2023/08/23 00:50:45;;;;;;;1.27;0.70;;;26.00;50.00;;;;;;5044561;28;20407;-62
2023/08/23 00:53:13;;;;;;;1.10;0.50;;;26.00;49.90;;;;;;5065791;28;20064;-65
2023/08/23 00:55:39;;;;;;;1.77;0.70;;;26.00;49.90;;;;;;5045597;28;20029;-61
2023/08/23 00:58:06;;;;;;;1.98;0.70;;;26.00;49.90;;;;;;5065027;28;20052;-63
2023/08/23 01:00:33;;;;;;;1.10;0.63;;;26.00;49.90;;;;;;5049913;28;20024;-64
2023/08/23 01:02:59;;;;;;;0.82;0.60;;;26.00;49.90;;;;;;5065032;28;20040;-64
2023/08/23 01:06:11;;;;;;;1.60;0.75;;;25.90;49.90;;;;;;5068294;28;20427;-63
2023/08/23 01:09:15;;;;;;;1.92;0.80;;;26.00;49.90;;;;;;5031722;28;20047;-63
2023/08/23 01:12:16;;;;;;;1.27;0.50;;;26.00;49.90;;;;;;5054735;28;20048;-65
2023/08/23 01:15:04;;;;;;;1.33;0.60;;;26.00;50.00;;;;;;5047245;28;20033;-62
2023/08/23 01:17:32;;;;;;;0.88;0.50;;;25.90;49.90;;;;;;5066980;28;20118;-63
2023/08/23 01:19:59;;;;;;;0.65;0.60;;;25.90;49.90;;;;;;5055704;28;20032;-65
2023/08/23 01:22:29;;;;;;;0.93;0.52;;;25.90;49.90;;;;;;5053856;28;20031;-64
2023/08/23 01:24:55;;;;;;;1.20;0.80;;;25.90;50.60;;;;;;5066779;28;20037;-63
2023/08/23 01:27:22;;;;;;;0.75;0.60;;;25.90;49.90;;;;;;5067355;28;20028;-62
2023/08/23 01:29:48;;;;;;;0.52;0.50;;;25.80;49.80;;;;;;5040291;28;20195;-63
2023/08/23 01:32:55;;;;;;;1.10;0.60;;;25.90;49.90;;;;;;5064219;28;20021;-63
2023/08/23 01:35:28;;;;;;;0.75;0.55;;;25.80;49.80;;;;;;5068800;28;20328;-62
2023/08/23 01:37:57;;;;;;;1.83;0.68;;;25.80;49.80;;;;;;5045211;28;20044;-62
2023/08/23 01:40:24;;;;;;;1.20;0.60;;;25.80;49.80;;;;;;5061892;28;20447;-63
2023/08/23 01:42:53;;;;;;;0.68;0.57;;;25.80;49.80;;;;;;5048446;28;20028;-64
2023/08/23 01:45:19;;;;;;;1.95;0.50;;;25.80;49.80;;;;;;5074551;28;20040;-66
2023/08/23 01:47:45;;;;;;;1.13;0.60;;;25.80;49.80;;;;;;5054934;28;20048;-63
2023/08/23 01:50:12;;;;;;;0.88;0.60;;;25.80;49.80;;;;;;5069185;28;20116;-63
2023/08/23 01:52:37;;;;;;;2.55;0.50;;;25.80;49.80;;;;;;5065668;28;20032;-64
2023/08/23 01:55:04;;;;;;;1.52;0.60;;;25.80;49.80;;;;;;5055661;28;20029;-64
2023/08/23 01:57:30;;;;;;;1.50;0.60;;;25.80;49.80;;;;;;5075874;28;20203;-62
2023/08/23 01:59:56;;;;;;;1.52;0.52;;;25.80;49.80;;;;;;5077946;28;20121;-62
2023/08/23 02:02:22;;;;;;;0.88;0.70;;;25.80;49.70;;;;;;5061274;28;20029;-63
2023/08/23 02:04:49;;;;;;;1.38;0.73;;;25.80;49.70;;;;;;5048184;28;20079;-64
2023/08/23 02:07:15;;;;;;;1.63;0.60;;;25.80;49.80;;;;;;5059397;28;20029;-62
2023/08/23 02:09:41;;;;;;;1.38;0.90;;;25.80;49.80;;;;;;5073045;28;20035;-63
2023/08/23 02:12:07;;;;;;;1.23;0.50;;;25.80;49.80;;;;;;5065709;28;20033;-66
2023/08/23 02:14:34;;;;;;;2.78;0.90;;;25.70;49.70;;;;;;5048709;28;20319;-62
2023/08/23 02:16:59;;;;;;;1.05;0.55;;;25.70;49.70;;;;;;5045719;28;20379;-64
2023/08/23 02:19:25;;;;;;;1.38;0.60;;;25.70;49.70;;;;;;5041440;28;20052;-63
2023/08/23 02:21:51;;;;;;;1.25;0.60;;;25.70;49.70;;;;;;5066840;28;20037;-63
2023/08/23 02:24:17;;;;;;;1.10;0.50;;;25.70;49.70;;;;;;5061012;28;20021;-63
2023/08/23 02:26:43;;;;;;;1.00;0.50;;;25.70;49.70;;;;;;5061302;28;20435;-62
2023/08/23 02:29:09;;;;;;;1.63;0.90;;;25.70;49.70;;;;;;5043092;28;20454;-62
2023/08/23 02:31:35;;;;;;;1.10;0.70;;;25.70;49.70;;;;;;5040574;28;20053;-62
2023/08/23 02:34:00;;;;;;;0.40;0.40;;;25.60;49.60;;;;;;5064016;28;20100;-64
2023/08/23 02:36:26;;;;;;;0.68;0.50;;;25.60;49.60;;;;;;5060855;28;20025;-63
2023/08/23 02:38:53;;;;;;;0.65;0.52;;;25.60;49.60;;;;;;5060532;28;20048;-62
2023/08/23 02:41:21;;;;;;;3.53;0.60;;;25.60;49.60;;;;;;5048257;28;20028;-62
2023/08/23 02:43:47;;;;;;;1.25;0.60;;;25.60;49.60;;;;;;5046601;28;20017;-63
2023/08/23 02:46:12;;;;;;;1.23;0.73;;;25.60;49.70;;;;;;5045249;28;20101;-64
2023/08/23 02:48:40;;;;;;;0.73;0.40;;;25.60;49.70;;;;;;5061039;28;20072;-63
2023/08/23 02:51:06;;;;;;;1.75;0.70;;;25.60;49.70;;;;;;5063075;28;20043;-62
2023/08/23 02:53:32;;;;;;;0.90;0.52;;;25.60;49.70;;;;;;5071017;28;20127;-62
2023/08/23 02:55:58;;;;;;;1.10;0.60;;;25.60;49.70;;;;;;5046860;28;20032;-65
2023/08/23 02:58:24;;;;;;;0.68;0.43;;;25.60;49.70;;;;;;5067936;28;20042;-64
2023/08/23 03:00:50;;;;;;;2.47;0.60;;;25.60;49.70;;;;;;5064521;28;20124;-63
2023/08/23 03:03:16;;;;;;;0.63;0.40;;;25.50;49.70;;;;;;5047562;28;20368;-65
2023/08/23 03:05:50;;;;;;;0.90;0.50;;;25.60;49.80;;;;;;5067922;28;20047;-61
2023/08/23 03:08:16;;;;;;;1.00;0.40;;;25.50;49.70;;;;;;5068599;28;20033;-65
2023/08/23 03:10:42;;;;;;;0.65;0.40;;;25.50;49.70;;;;;;5057412;28;20077;-64
2023/08/23 03:13:09;;;;;;;0.90;0.60;;;25.50;49.70;;;;;;5059995;28;20163;-62
2023/08/23 03:15:34;;;;;;;0.77;0.50;;;25.50;49.70;;;;;;5067252;28;20102;-61
2023/08/23 03:18:01;;;;;;;0.55;0.40;;;25.50;49.70;;;;;;5053253;28;20028;-64
2023/08/23 03:20:27;;;;;;;2.55;0.55;;;25.50;49.70;;;;;;5046918;28;20029;-63
2023/08/23 03:22:53;;;;;;;2.08;0.40;;;25.50;49.70;;;;;;5048711;28;20106;-62
2023/08/23 03:25:19;;;;;;;1.60;0.60;;;25.50;49.60;;;;;;5049196;28;20036;-62
2023/08/23 03:27:45;;;;;;;0.95;0.63;;;25.50;49.70;;;;;;5044446;28;20126;-63
2023/08/23 03:30:11;;;;;;;0.60;0.50;;;25.50;49.70;;;;;;5043994;28;20056;-63
2023/08/23 03:32:37;;;;;;;0.75;0.32;;;25.40;49.60;;;;;;5072860;28;20032;-63
2023/08/23 03:35:03;;;;;;;1.08;0.40;;;25.40;49.60;;;;;;5043582;28;20029;-65
2023/08/23 03:37:29;;;;;;;1.23;0.73;;;25.40;49.60;;;;;;5040968;28;20108;-63
2023/08/23 03:39:55;;;;;;;1.25;0.60;;;25.40;49.60;;;;;;5064870;28;20047;-63
2023/08/23 03:42:21;;;;;;;1.17;0.45;;;25.40;49.60;;;;;;5068713;28;20120;-62
2023/08/23 03:44:47;;;;;;;1.30;0.52;;;25.40;49.60;;;;;;5043670;28;20041;-63
2023/08/23 03:47:13;;;;;;;1.20;0.52;;;25.40;49.60;;;;;;5067188;28;20067;-63
2023/08/23 03:49:39;;;;;;;0.73;0.43;;;25.40;49.60;;;;;;5061795;28;20027;-63
2023/08/23 03:52:06;;;;;;;1.95;0.70;;;25.40;49.60;;;;;;5051952;28;20281;-62
2023/08/23 03:54:33;;;;;;;0.82;0.50;;;25.40;49.60;;;;;;5042888;28;20522;-63
2023/08/23 03:56:58;;;;;;;0.52;0.50;;;25.40;49.70;;;;;;5038737;28;20036;-62
2023/08/23 03:59:26;;;;;;;0.98;0.60;;;25.30;49.60;;;;;;5044092;28;20024;-64
2023/08/23 04:01:53;;;;;;;1.50;0.50;;;25.30;49.60;;;;;;5063477;28;20032;-62
2023/08/23 04:04:20;;;;;;;0.73;0.50;;;25.40;49.80;;;;;;5042753;28;20029;-62
2023/08/23 04:06:46;;;;;;;1.60;0.70;;;25.30;49.80;;;;;;5064415;28;20031;-64
2023/08/23 04:09:12;;;;;;;0.70;0.50;;;25.30;49.90;;;;;;5044674;28;20051;-62
2023/08/23 04:11:38;;;;;;;1.08;0.70;;;25.30;49.90;;;;;;5060252;28;20043;-63
2023/08/23 04:14:04;;;;;;;0.80;0.50;;;25.30;50.00;;;;;;5045685;28;20076;-64
2023/08/23 04:16:30;;;;;;;1.20;0.70;;;25.30;50.00;;;;;;5045574;28;20587;-64
2023/08/23 04:18:56;;;;;;;1.02;0.50;;;25.30;50.00;;;;;;5064258;28;20025;-63
2023/08/23 04:21:21;;;;;;;1.15;0.60;;;25.30;50.00;;;;;;5048906;28;20149;-65
2023/08/23 04:23:48;;;;;;;0.65;0.40;;;25.30;50.10;;;;;;5040055;28;20021;-63
2023/08/23 04:26:14;;;;;;;1.02;0.50;;;25.30;50.00;;;;;;5045069;28;20081;-64
2023/08/23 04:28:40;;;;;;;0.65;0.50;;;25.30;50.00;;;;;;5058310;28;20305;-62
2023/08/23 04:31:06;;;;;;;0.95;0.45;;;25.30;50.00;;;;;;5039793;28;20336;-63
2023/08/23 04:33:41;;;;;;;;;;;25.30;50.00;;;;;;5067728;28;20123;-63
2023/08/23 04:36:07;;;;;;;0.95;0.60;;;25.30;50.00;;;;;;5060009;28;20304;-63
2023/08/23 04:38:33;;;;;;;1.20;0.60;;;25.30;50.10;;;;;;5070570;28;20020;-64
2023/08/23 04:41:04;;;;;;;1.00;0.55;;;25.30;50.00;;;;;;5051131;28;20028;-63
2023/08/23 04:43:32;;;;;;;0.65;0.47;;;25.30;50.00;;;;;;5064722;28;20407;-63
2023/08/23 04:46:00;;;;;;;0.60;0.50;;;25.20;50.00;;;;;;5061532;28;20082;-63
2023/08/23 04:48:26;;;;;;;1.27;0.50;;;25.20;50.00;;;;;;5074786;28;20122;-63
2023/08/23 04:50:57;;;;;;;0.70;0.63;;;25.20;50.00;;;;;;5047412;28;20029;-63
2023/08/23 04:53:24;;;;;;;0.80;0.65;;;25.20;50.10;;;;;;5067806;28;20025;-64
2023/08/23 04:55:54;;;;;;;1.10;0.68;;;25.20;50.10;;;;;;5062794;28;20081;-62
2023/08/23 04:58:22;;;;;;;1.80;0.80;;;25.20;50.20;;;;;;5044946;28;20025;-63
2023/08/23 05:00:48;;;;;;;1.10;0.70;;;25.20;50.20;;;;;;5061163;28;20047;-63
2023/08/23 05:03:15;;;;;;;1.17;0.60;;;25.20;50.30;;;;;;5075914;28;20020;-62
2023/08/23 05:05:43;;;;;;;2.08;0.80;;;25.20;50.30;;;;;;5065569;28;20133;-63
2023/08/23 05:08:09;;;;;;;0.93;0.70;;;25.20;50.40;;;;;;5058189;28;20062;-63
2023/08/23 05:10:35;;;;;;;0.95;0.70;;;25.20;50.40;;;;;;5046760;28;20024;-62
2023/08/23 05:13:01;;;;;;;2.25;0.68;;;25.20;50.40;;;;;;5068846;28;20072;-63
2023/08/23 05:15:27;;;;;;;1.77;0.65;;;25.20;50.50;;;;;;5074963;28;20029;-63
2023/08/23 05:17:53;;;;;;;0.90;0.70;;;25.20;50.50;;;;;;5050502;28;20039;-62
2023/08/23 05:20:19;;;;;;;1.00;0.65;;;25.20;50.60;;;;;;5066585;28;20024;-63
2023/08/23 05:22:45;;;;;;;0.52;0.50;;;25.20;50.60;;;;;;5054559;28;20282;-63
2023/08/23 05:25:11;;;;;;;1.13;0.85;;;25.20;50.60;;;;;;5052767;28;20459;-63
2023/08/23 05:27:37;;;;;;;1.55;1.00;;;25.20;50.60;;;;;;5055903;28;20080;-65
2023/08/23 05:30:04;;;;;;;2.67;1.02;;;25.20;50.60;;;;;;5061852;28;20107;-63
2023/08/23 05:32:30;;;;;;;1.52;0.80;;;25.20;50.60;;;;;;5039339;28;20966;-61
2023/08/23 05:34:57;;;;;;;1.02;0.80;;;25.20;50.70;;;;;;5056128;28;20464;-62
2023/08/23 05:37:22;;;;;;;1.95;0.98;;;25.20;50.80;;;;;;5059836;28;20032;-63
2023/08/23 05:39:48;;;;;;;1.95;1.10;;;25.20;50.80;;;;;;5058738;28;20399;-63
2023/08/23 05:42:14;;;;;;;3.08;1.17;;;25.20;50.80;;;;;;5050847;28;20128;-62
2023/08/23 05:44:40;;;;;;;2.88;1.00;;;25.20;50.80;;;;;;5076484;28;20044;-61
2023/08/23 05:47:06;;;;;;;1.67;0.85;;;25.20;50.80;;;;;;5050307;28;20369;-63
2023/08/23 05:49:32;;;;;;;1.65;0.90;;;25.20;50.90;;;;;;5074501;28;20020;-63
2023/08/23 05:51:58;;;;;;;1.10;0.80;;;25.20;50.90;;;;;;5065559;28;20079;-63
2023/08/23 05:54:24;;;;;;;1.23;0.85;;;25.20;51.00;;;;;;5061834;28;20035;-63
2023/08/23 05:56:50;;;;;;;1.67;0.80;;;25.20;51.00;;;;;;5080921;28;20035;-62
2023/08/23 05:59:16;;;;;;;1.77;0.90;;;25.20;51.10;;;;;;5077046;28;20042;-63
2023/08/23 06:01:42;;;;;;;1.13;0.80;;;25.20;51.10;;;;;;5055570;28;20150;-64
2023/08/23 06:04:08;;;;;;;1.75;0.95;;;25.20;51.20;;;;;;5083816;28;20073;-63
2023/08/23 06:06:33;;;;;;;2.35;0.90;;;25.30;51.30;;;;;;5080402;28;20350;-63
2023/08/23 06:09:02;;;;;;;2.47;0.90;;;25.30;51.30;;;;;;5073910;28;20039;-64
2023/08/23 06:11:28;;;;;;;0.85;0.70;;;25.30;51.40;;;;;;5078991;28;20058;-64
2023/08/23 06:13:55;;;;;;;1.25;0.77;;;25.30;51.50;;;;;;5073170;28;20115;-63
2023/08/23 06:16:21;;;;;;;0.93;0.80;;;25.30;51.50;;;;;;5064977;28;20040;-65
2023/08/23 06:18:47;;;;;;;1.92;0.93;;;25.30;51.60;;;;;;5067971;28;20044;-62
2023/08/23 06:21:13;;;;;;;1.67;0.98;;;25.30;51.70;;;;;;5077978;28;20028;-63
2023/08/23 06:23:43;;;;;;;1.33;1.00;;;25.30;51.70;;;;;;5080028;28;20074;-64
2023/08/23 06:26:10;;;;;;;1.20;0.90;;;25.30;51.80;;;;;;5086365;28;20117;-61
2023/08/23 06:28:36;;;;;;;1.75;1.25;;;25.30;51.90;;;;;;5077362;28;20036;-62
2023/08/23 06:31:02;;;;;;;1.95;1.00;;;25.30;52.00;;;;;;5058843;28;20054;-64
2023/08/23 06:33:28;;;;;;;1.67;1.10;;;25.30;52.10;;;;;;5078006;28;20036;-63
2023/08/23 06:35:58;;;;;;;1.45;1.00;;;25.30;52.10;;;;;;5085018;28;20028;-63
2023/08/23 06:38:24;;;;;;;1.83;1.23;;;25.30;52.20;;;;;;5080405;28;20043;-62
2023/08/23 06:40:50;;;;;;;1.92;1.10;;;25.30;52.30;;;;;;5062371;28;20047;-63
2023/08/23 06:43:19;;;;;;;2.20;1.27;;;25.30;52.40;;;;;;5067889;28;20322;-62
2023/08/23 06:45:45;;;;;;;2.05;1.48;;;25.30;52.40;;;;;;5081332;28;20097;-61
2023/08/23 06:48:12;;;;;;;1.70;1.30;;;25.30;52.40;;;;;;5081209;28;20056;-64
2023/08/23 06:50:38;;;;;;;1.95;1.20;;;25.30;52.50;;;;;;5085498;28;20099;-62
2023/08/23 06:53:05;;;;;;;3.22;1.20;;;25.30;52.60;;;;;;5079543;28;20160;-63
2023/08/23 06:55:31;;;;;;;2.20;1.25;;;25.30;52.70;;;;;;5086255;28;20028;-62
2023/08/23 06:57:57;;;;;;;1.73;1.00;;;25.30;52.70;;;;;;5074855;28;20406;-62
2023/08/23 07:00:23;;;;;;;1.45;1.00;;;25.30;52.70;;;;;;5064130;28;20036;-64
2023/08/23 07:02:49;;;;;;;2.80;1.23;;;25.30;52.70;;;;;;5072727;28;20039;-62
2023/08/23 07:05:15;;;;;;;2.25;1.00;;;25.30;52.70;;;;;;5050569;28;20048;-62
2023/08/23 07:07:41;;;;;;;2.22;1.10;;;25.30;52.70;;;;;;5067579;28;20036;-62
2023/08/23 07:10:07;;;;;;;2.38;1.00;;;25.30;52.70;;;;;;5065534;28;20607;-62
2023/08/23 07:12:33;;;;;;;1.52;1.02;;;25.30;53.30;;;;;;5064468;28;20032;-62
2023/08/23 07:14:59;;;;;;;2.20;1.25;;;25.30;52.70;;;;;;5051028;28;20029;-63
2023/08/23 07:17:25;;;;;;;1.23;1.08;;;25.30;52.70;;;;;;5048624;28;20408;-62
2023/08/23 07:19:51;;;;;;;1.50;0.80;;;25.30;52.60;;;;;;5071409;28;20036;-62
2023/08/23 07:22:16;;;;;;;1.40;0.88;;;25.30;52.60;;;;;;5071268;28;20031;-63
2023/08/23 07:24:43;;;;;;;2.13;1.00;;;25.30;52.60;;;;;;5071610;28;20044;-64
2023/08/23 07:27:09;;;;;;;2.90;1.05;;;25.30;52.50;;;;;;5070541;28;20129;-64
2023/08/23 07:29:37;;;;;;;1.67;0.90;;;25.40;52.60;;;;;;5072901;28;20086;-63
2023/08/23 07:32:06;;;;;;;1.25;0.90;;;25.40;52.50;;;;;;5048245;28;20036;-63
2023/08/23 07:34:33;;;;;;;3.08;0.77;;;25.40;52.50;;;;;;5052281;28;20047;-64
2023/08/23 07:36:59;;;;;;;1.00;0.70;;;25.40;52.50;;;;;;5052152;28;20358;-64
2023/08/23 07:39:27;;;;;;;1.20;0.80;;;25.40;52.50;;;;;;5084427;28;20031;-62
2023/08/23 07:41:54;;;;;;;2.08;1.10;;;25.40;52.50;;;;;;5071258;28;20324;-64
2023/08/23 07:44:20;;;;;;;1.90;1.00;;;25.40;52.40;;;;;;5069569;28;20056;-63
2023/08/23 07:46:45;;;;;;;1.30;0.98;;;25.40;52.40;;;;;;5073895;28;20112;-63
2023/08/23 07:49:15;;;;;;;0.90;0.88;;;25.40;52.30;;;;;;5067753;28;20031;-64
2023/08/23 07:51:41;;;;;;;1.67;0.80;;;25.40;52.30;;;;;;5083880;28;20028;-63
2023/08/23 07:54:07;;;;;;;1.38;0.70;;;25.40;52.20;;;;;;5083733;28;20024;-62
2023/08/23 07:56:34;;;;;;;1.02;0.70;;;25.50;52.20;;;;;;5084151;28;20417;-62
2023/08/23 07:59:00;;;;;;;0.95;0.73;;;25.40;52.00;;;;;;5086061;28;20024;-62
2023/08/23 08:01:26;;;;;;;1.50;0.70;;;25.40;51.90;;;;;;5065767;28;20025;-64
2023/08/23 08:03:52;;;;;;;3.22;0.80;;;25.50;52.00;;;;;;5059360;28;21388;-63
2023/08/23 08:06:18;;;;;;;1.95;0.77;;;25.50;51.80;;;;;;5076330;28;20047;-63
2023/08/23 08:08:45;;;;;;;1.05;0.68;;;25.50;51.80;;;;;;5067998;28;20028;-62
2023/08/23 08:11:12;;;;;;;1.30;0.60;;;25.50;51.70;;;;;;5073638;28;20446;-64
2023/08/23 08:13:41;;;;;;;1.15;0.80;;;25.50;51.70;;;;;;5079914;28;20342;-65
2023/08/23 08:16:14;;;;;;;1.15;0.85;;;25.50;51.60;;;;;;5077777;28;20043;-63
2023/08/23 08:18:42;;;;;;;1.20;0.90;;;25.50;51.50;;;;;;5064724;28;20408;-64
2023/08/23 08:21:09;;;;;;;1.05;0.70;;;25.50;51.50;;;;;;5079822;28;20048;-63
2023/08/23 08:23:35;;;;;;;3.55;0.88;;;25.50;51.50;;;;;;5082493;28;20128;-62
2023/08/23 08:26:01;;;;;;;1.75;0.90;;;25.50;51.50;;;;;;5081786;28;20186;-64
2023/08/23 08:28:28;;;;;;;1.20;0.68;;;25.50;51.50;;;;;;5074251;28;20078;-63
2023/08/23 08:30:53;;;;;;;1.33;0.80;;;25.50;51.50;;;;;;5079757;28;20107;-64
2023/08/23 08:33:19;;;;;;;1.38;0.73;;;25.50;51.40;;;;;;5076795;28;20143;-64
2023/08/23 08:35:45;;;;;;;1.35;0.70;;;25.60;51.50;;;;;;5083448;28;20050;-64
2023/08/23 08:38:11;;;;;;;2.03;0.82;;;25.60;51.50;;;;;;5078022;28;20091;-64
2023/08/23 08:40:38;;;;;;;2.08;0.82;;;25.50;51.40;;;;;;5081184;28;20161;-64
2023/08/23 08:43:05;;;;;;;0.85;0.70;;;25.60;51.40;;;;;;5064352;28;20460;-64
2023/08/23 08:45:32;;;;;;;1.83;0.65;;;25.60;51.30;;;;;;5084844;28;20370;-64
2023/08/23 08:47:58;;;;;;;1.80;0.93;;;25.60;51.30;;;;;;5083459;28;20059;-64
2023/08/23 08:50:30;;;;;;;1.77;0.80;;;25.60;51.20;;;;;;5083103;28;20323;-65
2023/08/23 08:52:59;;;;;;;1.77;0.70;;;25.60;51.20;;;;;;5066945;28;20028;-66
2023/08/23 08:55:25;;;;;;;1.85;0.90;;;25.60;51.20;;;;;;5080157;28;20083;-64
2023/08/23 08:57:54;;;;;;;1.55;0.88;;;25.60;51.10;;;;;;5065049;28;20032;-63
2023/08/23 09:00:25;;;;;;;3.03;0.90;;;25.60;51.10;;;;;;5081058;28;20028;-64
2023/08/23 09:02:54;;;;;;;1.92;0.88;;;25.60;51.10;;;;;;5061050;28;20396;-65
2023/08/23 09:05:24;;;;;;;3.35;1.10;;;25.60;51.20;;;;;;5082281;28;20036;-63
2023/08/23 09:07:51;;;;;;;1.83;0.82;;;25.60;51.20;;;;;;5073969;28;20063;-65
2023/08/23 09:10:17;;;;;;;1.30;0.65;;;25.60;51.20;;;;;;5081497;28;20073;-64
2023/08/23 09:12:43;;;;;;;1.45;0.80;;;25.60;51.20;;;;;;5064889;28;20293;-65
2023/08/23 09:15:09;;;;;;;1.95;0.88;;;25.60;51.20;;;;;;5066366;28;20042;-63
2023/08/23 09:17:36;;;;;;;2.38;0.98;;;25.60;51.20;;;;;;5073810;28;20326;-63
2023/08/23 09:20:07;;;;;;;1.70;0.95;;;25.60;51.30;;;;;;5061759;28;20063;-63
2023/08/23 09:22:33;;;;;;;2.83;0.90;;;25.60;51.30;;;;;;5079635;28;20043;-64
2023/08/23 09:25:03;;;;;;;1.13;0.80;;;25.60;51.40;;;;;;5081935;28;20036;-63
2023/08/23 09:27:30;;;;;;;0.65;0.60;;;25.60;51.40;;;;;;5062400;28;20024;-65
2023/08/23 09:29:58;;;;;;;1.60;0.52;;;25.60;51.40;;;;;;5086821;28;20048;-66
2023/08/23 09:32:27;;;;;;;1.42;0.90;;;25.60;51.30;;;;;;5087835;28;20112;-66
2023/08/23 09:34:53;;;;;;;1.88;0.90;;;25.60;51.30;;;;;;5086680;28;20084;-64
2023/08/23 09:37:19;;;;;;;1.23;0.80;;;25.60;51.20;;;;;;5086908;28;20032;-64
2023/08/23 09:39:45;;;;;;;1.58;0.68;;;25.60;51.10;;;;;;5086717;28;20374;-64
2023/08/23 09:42:14;;;;;;;1.30;0.65;;;25.60;51.10;;;;;;5083849;28;20103;-65
2023/08/23 09:44:43;;;;;;;2.03;0.93;;;25.60;51.00;;;;;;5085592;28;20072;-65
2023/08/23 09:47:15;;;;;;;1.48;0.75;;;25.60;50.90;;;;;;5080596;28;20062;-64
2023/08/23 09:49:43;;;;;;;1.42;0.90;;;25.70;50.90;;;;;;5081319;28;20032;-65
2023/08/23 09:52:11;;;;;;;1.63;0.90;;;25.70;50.90;;;;;;5083561;28;20024;-63
2023/08/23 09:55:03;;;;;;;3.22;1.02;;;25.70;50.80;;;;;;5085787;28;20024;-63
2023/08/23 09:57:31;;;;;;;0.75;0.60;;;25.70;50.60;;;;;;5076231;28;20074;-65
2023/08/23 09:59:59;;;;;;;1.85;0.70;;;25.70;50.60;;;;;;5083283;28;20076;-64
2023/08/23 10:02:27;;;;;;;2.22;0.68;;;25.70;50.50;;;;;;5079937;28;20056;-66
2023/08/23 10:04:54;;;;;;;1.83;0.80;;;25.70;50.40;;;;;;5061149;28;20109;-65
2023/08/23 10:07:20;;;;;;;0.98;0.70;;;25.70;50.30;;;;;;5077306;28;20029;-65
2023/08/23 10:09:47;;;;;;;0.80;0.60;;;25.70;50.20;;;;;;5065083;28;20035;-65
2023/08/23 10:12:14;;;;;;;1.60;0.77;;;25.70;50.20;;;;;;5078277;28;20127;-64
2023/08/23 10:14:44;;;;;;;1.55;0.60;;;25.70;50.00;;;;;;5074610;28;20040;-63
2023/08/23 10:17:14;;;;;;;0.80;0.70;;;25.80;50.00;;;;;;5071464;28;20446;-65
2023/08/23 10:19:40;;;;;;;1.35;0.70;;;25.70;49.90;;;;;;5067348;28;20471;-64
2023/08/23 10:22:06;;;;;;;1.48;0.65;;;25.80;49.80;;;;;;5067979;28;20102;-64
2023/08/23 10:24:32;;;;;;;1.42;0.80;;;25.80;49.70;;;;;;5073837;28;20028;-65
2023/08/23 10:27:08;;;;;;;1.08;0.52;;;25.80;49.60;;;;;;5077991;28;20304;-66
2023/08/23 10:29:38;;;;;;;1.00;0.57;;;25.80;49.40;;;;;;5078356;28;20040;-65
2023/08/23 10:32:11;;;;;;;1.23;0.63;;;25.80;49.10;;;;;;5069688;28;20176;-64
2023/08/23 10:34:40;;;;;;;0.95;0.50;;;25.80;48.90;;;;;;5072061;28;20032;-64
2023/08/23 10:37:14;;;;;;;1.52;0.80;;;25.80;48.80;;;;;;5093122;28;20043;-67
2023/08/23 10:39:54;;;;;;;1.08;0.60;;;25.80;48.60;;;;;;5069462;28;20100;-65
2023/08/23 10:42:21;;;;;;;0.73;0.45;;;25.80;48.50;;;;;;5093214;28;20023;-63
2023/08/23 10:44:56;;;;;;;0.95;0.70;;;25.80;49.00;;;;;;5074050;28;20032;-66
2023/08/23 10:47:23;;;;;;;1.55;0.80;;;25.80;48.40;;;;;;5068997;28;20427;-63
2023/08/23 10:49:50;;;;;;;1.45;0.50;;;25.80;48.40;;;;;;5085509;28;20048;-67
2023/08/23 10:52:16;;;;;;;2.35;0.80;;;25.80;48.40;;;;;;5085532;28;20031;-63
2023/08/23 10:54:42;;;;;;;1.23;0.65;;;25.80;48.30;;;;;;5069283;28;20128;-65
2023/08/23 10:57:09;;;;;;;1.33;0.80;;;25.80;48.20;;;;;;5092916;28;20073;-64
2023/08/23 10:59:35;;;;;;;0.88;0.50;;;25.80;48.10;;;;;;5090215;28;20028;-64
2023/08/23 11:02:01;;;;;;;1.00;0.63;;;25.80;48.00;;;;;;5072758;28;20442;-63
2023/08/23 11:04:27;;;;;;;1.30;0.80;;;25.90;47.90;;;;;;5073877;28;20029;-63
2023/08/23 11:06:54;;;;;;;1.10;0.52;;;25.80;48.40;;;;;;5057551;28;20039;-67
2023/08/23 11:09:20;;;;;;;1.85;0.63;;;25.90;47.70;;;;;;5079357;28;20392;-64
2023/08/23 11:11:47;;;;;;;0.75;0.60;;;25.90;47.70;;;;;;5068132;28;20089;-64
2023/08/23 11:14:13;;;;;;;0.85;0.60;;;25.90;47.60;;;;;;5075189;28;20033;-64
2023/08/23 11:16:39;;;;;;;0.98;0.60;;;25.90;47.70;;;;;;5074424;28;20024;-66
2023/08/23 11:19:09;;;;;;;1.38;0.50;;;25.90;47.80;;;;;;5069437;28;20036;-67
2023/08/23 11:21:38;;;;;;;1.58;0.77;;;26.00;48.00;;;;;;5078229;28;20768;-64
2023/08/23 11:24:05;;;;;;;0.70;0.60;;;26.00;48.10;;;;;;5076842;28;20146;-65
2023/08/23 11:26:36;;;;;;;0.85;0.55;;;26.10;48.20;;;;;;5066867;28;20036;-67
2023/08/23 11:29:03;;;;;;;1.15;0.57;;;26.20;48.20;;;;;;5068115;28;20024;-68
2023/08/23 11:31:31;;;;;;;1.33;0.88;;;26.20;48.20;;;;;;5066102;28;20048;-66
2023/08/23 11:33:59;;;;;;;0.90;0.60;;;26.40;48.20;;;;;;5070595;28;20024;-68
2023/08/23 11:36:27;;;;;;;2.25;0.80;;;26.50;48.10;;;;;;5081621;28;20086;-64
2023/08/23 11:38:53;;;;;;;1.60;0.80;;;26.60;48.00;;;;;;5077957;28;20103;-64
2023/08/23 11:41:30;;;;;;;1.27;0.68;;;26.70;47.90;;;;;;5073927;28;20074;-67
2023/08/23 11:43:56;;;;;;;1.67;0.90;;;26.80;47.60;;;;;;5078820;28;20082;-63
2023/08/23 11:46:22;;;;;;;2.47;0.70;;;26.90;47.50;;;;;;5080289;28;20397;-65
2023/08/23 11:48:48;;;;;;;0.88;0.43;;;27.00;47.30;;;;;;5077055;28;20051;-64
2023/08/23 11:51:13;;;;;;;3.72;0.60;;;27.10;47.10;;;;;;5073122;28;20033;-65
2023/08/23 11:53:55;;;;;;;0.73;0.50;;;27.20;46.90;;;;;;5074810;28;20111;-65
2023/08/23 11:56:21;;;;;;;1.23;0.50;;;27.30;46.70;;;;;;5053365;28;20085;-68
2023/08/23 11:58:47;;;;;;;0.80;0.47;;;27.40;46.60;;;;;;5067832;28;20419;-66
2023/08/23 12:01:13;;;;;;;0.85;0.60;;;27.40;46.50;;;;;;5080828;28;20063;-64
2023/08/23 12:03:39;;;;;;;0.68;0.60;;;27.50;46.40;;;;;;5080442;28;20127;-69
2023/08/23 12:06:05;;;;;;;1.27;0.60;;;27.50;46.10;;;;;;5079287;28;20043;-69
2023/08/23 12:08:33;;;;;;;1.13;0.50;;;27.60;46.00;;;;;;5073203;28;20029;-69
2023/08/23 12:10:59;;;;;;;1.45;0.60;;;27.70;45.90;;;;;;5070382;28;20036;-66
2023/08/23 12:13:25;;;;;;;0.95;0.60;;;27.70;45.60;;;;;;5061842;28;20100;-63
2023/08/23 12:15:51;;;;;;;0.95;0.50;;;27.70;45.50;;;;;;5064730;28;20255;-62
2023/08/23 12:18:17;;;;;;;0.90;0.60;;;27.80;45.60;;;;;;5067942;28;20027;-64
2023/08/23 12:20:46;;;;;;;0.68;0.40;;;27.80;45.50;;;;;;5071581;28;20053;-66
2023/08/23 12:23:12;;;;;;;0.93;0.50;;;27.90;45.60;;;;;;5072237;28;20103;-70
2023/08/23 12:25:38;;;;;;;1.20;0.60;;;27.90;45.50;;;;;;5062232;28;20325;-69
2023/08/23 12:28:05;;;;;;;0.77;0.50;;;27.90;45.50;;;;;;5052359;28;20029;-69
2023/08/23 12:30:31;;;;;;;0.65;0.57;;;27.90;45.60;;;;;;5060319;28;20029;-73
2023/08/23 12:32:57;;;;;;;0.90;0.40;;;28.00;45.60;;;;;;5072071;28;20020;-69
2023/08/23 12:35:23;;;;;;;0.95;0.60;;;28.00;45.60;;;;;;5069263;28;20029;-66
2023/08/23 12:37:49;;;;;;;0.82;0.50;;;28.00;45.50;;;;;;5074234;28;20083;-65
2023/08/23 12:40:15;;;;;;;0.63;0.43;;;28.00;45.50;;;;;;5053675;28;20414;-65
2023/08/23 12:42:41;;;;;;;3.75;0.52;;;28.00;45.40;;;;;;5074463;28;20056;-65
2023/08/23 12:45:08;;;;;;;0.77;0.50;;;28.10;45.40;;;;;;5071907;28;20047;-66
2023/08/23 12:47:34;;;;;;;0.60;0.30;;;28.20;45.40;;;;;;5070010;28;20337;-67
2023/08/23 12:50:00;;;;;;;0.80;0.50;;;28.20;45.30;;;;;;5060868;28;20466;-67